This is the latest recevied weather packets stored in our database for station/object YT6PT-8. If no packets are shown the sender has not sent any weather packets the latest 10 day(s).
| Time | Temp. | Humidity | Pressure | Rain* | Wind** | Luminosity | Snow |
|---|---|---|---|---|---|---|---|
| 1787958632 | 23.33° C | 60% | 1008.8 hPa | 0 mm | 0.45 m/s, 158° | - | - |
| 1787958332 | 22.22° C | 62% | 1008.9 hPa | 0 mm | 0.45 m/s, 158° | - | - |
| 1787958038 | 22.22° C | 62% | 1008.9 hPa | 0 mm | 0.45 m/s, 158° | - | - |
| 1787957750 | 20.56° C | 67% | 1008.9 hPa | 0 mm | 0.89 m/s, 158° | - | - |
| 1787957452 | 20.56° C | 67% | 1008.9 hPa | 0 mm | 0.89 m/s, 158° | - | - |
| 1787957152 | 20.56° C | 72% | 1008.6 hPa | 0 mm | 2.68 m/s, 158° | - | - |
| 1787956833 | 20.56° C | 72% | 1008.6 hPa | 0 mm | 2.68 m/s, 158° | - | - |
| 1787956532 | 20.56° C | 72% | 1008.8 hPa | 0 mm | 1.79 m/s, 158° | - | - |
| 1787956232 | 20.56° C | 72% | 1008.8 hPa | 0 mm | 1.79 m/s, 158° | - | - |
| 1787955932 | 20.56° C | 71% | 1008.8 hPa | 0 mm | 0.89 m/s, 158° | - | - |
| 1787955632 | 20.56° C | 71% | 1008.8 hPa | 0 mm | 0.89 m/s, 158° | - | - |
| 1787955333 | 20° C | 72% | 1009.1 hPa | 0 mm | 1.34 m/s, 158° | - | - |
| 1787955033 | 20° C | 72% | 1009.1 hPa | 0 mm | 1.34 m/s, 158° | - | - |
| 1787954753 | 20° C | 73% | 1009.1 hPa | 0 mm | 2.68 m/s, 158° | - | - |
| 1787954440 | 20° C | 73% | 1009.1 hPa | 0 mm | 2.68 m/s, 158° | - | - |
| 1787954132 | 20° C | 74% | 1009.1 hPa | 0 mm | 1.79 m/s, 158° | - | - |
| 1787953832 | 20° C | 74% | 1009.1 hPa | 0 mm | 1.79 m/s, 158° | - | - |
| 1787953532 | 20.56° C | 72% | 1009 hPa | 0 mm | 2.24 m/s, 180° | - | - |
| 1787953232 | 20.56° C | 72% | 1009 hPa | 0 mm | 2.24 m/s, 180° | - | - |
| 1787952954 | 21.11° C | 69% | 1009 hPa | 0 mm | 2.68 m/s, 180° | - | - |
| 1787952654 | 21.11° C | 69% | 1009 hPa | 0 mm | 2.68 m/s, 180° | - | - |
| 1787952332 | 21.11° C | 69% | 1009 hPa | 0 mm | 2.68 m/s, 180° | - | - |
| 1787952032 | 21.11° C | 69% | 1009 hPa | 0 mm | 2.68 m/s, 180° | - | - |
| 1787951733 | 21.11° C | 69% | 1009 hPa | 0 mm | 2.68 m/s, 180° | - | - |
| 1787951430 | 21.11° C | 69% | 1009 hPa | 0 mm | 2.68 m/s, 180° | - | - |
* Rain latest hour (hover to see other rain measurements)
** Current wind speed in m/s (hover to see current wind gust speed)